sensor_id;sensor_type;location;lat;lon;timestamp;temperature;humidity
20560;DHT22;10438;51.454;6.718;2022-09-13T00:00:35;19.20;99.90
20560;DHT22;10438;51.454;6.718;2022-09-13T00:03:01;19.20;99.90
20560;DHT22;10438;51.454;6.718;2022-09-13T00:05:27;19.20;99.90
20560;DHT22;10438;51.454;6.718;2022-09-13T00:07:53;19.20;99.90
20560;DHT22;10438;51.454;6.718;2022-09-13T00:10:19;19.20;99.90
20560;DHT22;10438;51.454;6.718;2022-09-13T00:12:47;19.20;99.90
20560;DHT22;10438;51.454;6.718;2022-09-13T00:15:12;19.20;99.90
20560;DHT22;10438;51.454;6.718;2022-09-13T00:17:38;19.20;99.90
20560;DHT22;10438;51.454;6.718;2022-09-13T00:20:04;19.20;99.90
20560;DHT22;10438;51.454;6.718;2022-09-13T00:22:30;19.10;99.90
20560;DHT22;10438;51.454;6.718;2022-09-13T00:24:55;19.10;99.90
20560;DHT22;10438;51.454;6.718;2022-09-13T00:27:21;19.00;99.90
20560;DHT22;10438;51.454;6.718;2022-09-13T00:29:46;19.10;99.90
20560;DHT22;10438;51.454;6.718;2022-09-13T00:32:12;19.10;99.90
20560;DHT22;10438;51.454;6.718;2022-09-13T00:34:37;19.10;99.90
20560;DHT22;10438;51.454;6.718;2022-09-13T00:37:03;19.10;99.90
20560;DHT22;10438;51.454;6.718;2022-09-13T00:39:29;19.10;99.90
20560;DHT22;10438;51.454;6.718;2022-09-13T00:41:54;19.10;99.90
20560;DHT22;10438;51.454;6.718;2022-09-13T00:45:21;19.00;99.90
20560;DHT22;10438;51.454;6.718;2022-09-13T00:47:54;19.00;99.90
20560;DHT22;10438;51.454;6.718;2022-09-13T00:50:30;19.00;99.90
20560;DHT22;10438;51.454;6.718;2022-09-13T00:53:02;19.00;99.90
20560;DHT22;10438;51.454;6.718;2022-09-13T00:58:07;18.90;99.90
20560;DHT22;10438;51.454;6.718;2022-09-13T01:00:35;18.90;99.90
20560;DHT22;10438;51.454;6.718;2022-09-13T01:03:04;18.90;99.90
20560;DHT22;10438;51.454;6.718;2022-09-13T01:05:34;18.90;99.90
20560;DHT22;10438;51.454;6.718;2022-09-13T01:08:01;18.80;99.90
20560;DHT22;10438;51.454;6.718;2022-09-13T01:10:28;18.80;99.90
20560;DHT22;10438;51.454;6.718;2022-09-13T01:13:05;18.80;99.90
20560;DHT22;10438;51.454;6.718;2022-09-13T01:15:37;18.80;99.90
20560;DHT22;10438;51.454;6.718;2022-09-13T01:18:03;18.80;99.90
20560;DHT22;10438;51.454;6.718;2022-09-13T01:29:19;18.80;99.90
20560;DHT22;10438;51.454;6.718;2022-09-13T01:35:05;18.70;99.90
20560;DHT22;10438;51.454;6.718;2022-09-13T01:37:57;18.70;99.90
20560;DHT22;10438;51.454;6.718;2022-09-13T01:40:49;18.80;99.90
20560;DHT22;10438;51.454;6.718;2022-09-13T01:48:54;18.80;99.90
20560;DHT22;10438;51.454;6.718;2022-09-13T01:59:49;18.80;99.90
20560;DHT22;10438;51.454;6.718;2022-09-13T02:02:27;18.80;99.90
20560;DHT22;10438;51.454;6.718;2022-09-13T02:07:55;18.80;99.90
20560;DHT22;10438;51.454;6.718;2022-09-13T02:10:34;18.80;99.90
20560;DHT22;10438;51.454;6.718;2022-09-13T02:13:04;18.80;99.90
20560;DHT22;10438;51.454;6.718;2022-09-13T02:15:43;18.80;99.90
20560;DHT22;10438;51.454;6.718;2022-09-13T02:18:16;18.80;99.90
20560;DHT22;10438;51.454;6.718;2022-09-13T02:20:47;18.80;99.90
20560;DHT22;10438;51.454;6.718;2022-09-13T02:23:25;18.70;99.90
20560;DHT22;10438;51.454;6.718;2022-09-13T02:25:56;18.80;99.90
20560;DHT22;10438;51.454;6.718;2022-09-13T02:28:34;18.80;99.90
20560;DHT22;10438;51.454;6.718;2022-09-13T02:31:02;18.80;99.90
20560;DHT22;10438;51.454;6.718;2022-09-13T02:33:35;18.80;99.90
20560;DHT22;10438;51.454;6.718;2022-09-13T02:36:05;18.80;99.90
20560;DHT22;10438;51.454;6.718;2022-09-13T02:38:46;18.80;99.90
20560;DHT22;10438;51.454;6.718;2022-09-13T02:44:24;18.80;99.90
20560;DHT22;10438;51.454;6.718;2022-09-13T02:47:27;18.80;99.90
20560;DHT22;10438;51.454;6.718;2022-09-13T02:58:34;18.80;99.90
20560;DHT22;10438;51.454;6.718;2022-09-13T03:01:02;18.80;99.90
20560;DHT22;10438;51.454;6.718;2022-09-13T03:03:27;18.80;99.90
20560;DHT22;10438;51.454;6.718;2022-09-13T03:05:53;18.80;99.90
20560;DHT22;10438;51.454;6.718;2022-09-13T03:08:20;18.80;99.90
20560;DHT22;10438;51.454;6.718;2022-09-13T03:11:17;18.80;99.90
20560;DHT22;10438;51.454;6.718;2022-09-13T03:22:46;18.50;99.90
20560;DHT22;10438;51.454;6.718;2022-09-13T03:25:41;18.50;99.90
20560;DHT22;10438;51.454;6.718;2022-09-13T03:31:17;18.40;99.90
20560;DHT22;10438;51.454;6.718;2022-09-13T03:33:57;18.40;99.90
20560;DHT22;10438;51.454;6.718;2022-09-13T03:36:34;18.30;99.90
20560;DHT22;10438;51.454;6.718;2022-09-13T03:39:19;18.30;99.90
20560;DHT22;10438;51.454;6.718;2022-09-13T03:41:51;18.20;99.90
20560;DHT22;10438;51.454;6.718;2022-09-13T03:44:21;18.20;99.90
20560;DHT22;10438;51.454;6.718;2022-09-13T03:46:50;18.20;99.90
20560;DHT22;10438;51.454;6.718;2022-09-13T03:49:20;18.20;99.90
20560;DHT22;10438;51.454;6.718;2022-09-13T03:51:49;18.10;99.90
20560;DHT22;10438;51.454;6.718;2022-09-13T03:54:24;18.10;99.90
20560;DHT22;10438;51.454;6.718;2022-09-13T03:59:36;18.10;99.90
20560;DHT22;10438;51.454;6.718;2022-09-13T04:02:06;18.10;99.90
20560;DHT22;10438;51.454;6.718;2022-09-13T04:04:35;18.10;99.90
20560;DHT22;10438;51.454;6.718;2022-09-13T04:07:01;18.10;99.90
20560;DHT22;10438;51.454;6.718;2022-09-13T04:09:29;18.10;99.90
20560;DHT22;10438;51.454;6.718;2022-09-13T04:11:55;18.10;99.90
20560;DHT22;10438;51.454;6.718;2022-09-13T04:14:20;18.00;99.90
20560;DHT22;10438;51.454;6.718;2022-09-13T04:16:47;18.00;99.90
20560;DHT22;10438;51.454;6.718;2022-09-13T04:19:12;18.00;99.90
20560;DHT22;10438;51.454;6.718;2022-09-13T04:21:38;17.90;99.90
20560;DHT22;10438;51.454;6.718;2022-09-13T04:24:04;17.90;99.90
20560;DHT22;10438;51.454;6.718;2022-09-13T04:26:29;17.90;99.90
20560;DHT22;10438;51.454;6.718;2022-09-13T04:28:55;17.90;99.90
20560;DHT22;10438;51.454;6.718;2022-09-13T04:31:20;17.90;99.90
20560;DHT22;10438;51.454;6.718;2022-09-13T04:33:46;18.00;99.90
20560;DHT22;10438;51.454;6.718;2022-09-13T04:36:11;17.90;99.90
20560;DHT22;10438;51.454;6.718;2022-09-13T04:38:37;17.90;99.90
20560;DHT22;10438;51.454;6.718;2022-09-13T04:41:02;17.90;99.90
20560;DHT22;10438;51.454;6.718;2022-09-13T04:43:28;17.90;99.90
20560;DHT22;10438;51.454;6.718;2022-09-13T04:45:54;17.90;99.90
20560;DHT22;10438;51.454;6.718;2022-09-13T04:48:23;17.80;99.90
20560;DHT22;10438;51.454;6.718;2022-09-13T04:50:49;17.80;99.90
20560;DHT22;10438;51.454;6.718;2022-09-13T04:53:14;17.80;99.90
20560;DHT22;10438;51.454;6.718;2022-09-13T04:55:40;17.80;99.90
20560;DHT22;10438;51.454;6.718;2022-09-13T04:58:05;17.80;99.90
20560;DHT22;10438;51.454;6.718;2022-09-13T05:00:31;17.80;99.90
20560;DHT22;10438;51.454;6.718;2022-09-13T05:02:57;17.80;99.90
20560;DHT22;10438;51.454;6.718;2022-09-13T05:05:23;17.80;99.90
20560;DHT22;10438;51.454;6.718;2022-09-13T05:07:51;17.80;99.90
20560;DHT22;10438;51.454;6.718;2022-09-13T05:10:17;17.80;99.90
20560;DHT22;10438;51.454;6.718;2022-09-13T05:12:43;17.80;99.90
20560;DHT22;10438;51.454;6.718;2022-09-13T05:15:09;17.80;99.90
20560;DHT22;10438;51.454;6.718;2022-09-13T05:17:37;17.80;99.90
20560;DHT22;10438;51.454;6.718;2022-09-13T05:20:03;17.80;99.90
20560;DHT22;10438;51.454;6.718;2022-09-13T05:22:29;17.80;99.90
20560;DHT22;10438;51.454;6.718;2022-09-13T05:24:55;17.80;99.90
20560;DHT22;10438;51.454;6.718;2022-09-13T05:27:21;17.90;99.90
20560;DHT22;10438;51.454;6.718;2022-09-13T05:29:46;17.90;99.90
20560;DHT22;10438;51.454;6.718;2022-09-13T05:32:12;17.90;99.90
20560;DHT22;10438;51.454;6.718;2022-09-13T05:34:38;17.90;99.90
20560;DHT22;10438;51.454;6.718;2022-09-13T05:37:03;17.90;99.90
20560;DHT22;10438;51.454;6.718;2022-09-13T05:39:29;17.90;99.90
20560;DHT22;10438;51.454;6.718;2022-09-13T05:41:54;18.00;99.90
20560;DHT22;10438;51.454;6.718;2022-09-13T05:44:20;18.00;99.90
20560;DHT22;10438;51.454;6.718;2022-09-13T05:46:46;18.00;99.90
20560;DHT22;10438;51.454;6.718;2022-09-13T05:49:12;18.10;99.90
20560;DHT22;10438;51.454;6.718;2022-09-13T05:51:38;18.10;99.90
20560;DHT22;10438;51.454;6.718;2022-09-13T05:54:04;18.00;99.90
20560;DHT22;10438;51.454;6.718;2022-09-13T05:56:30;18.10;99.90
20560;DHT22;10438;51.454;6.718;2022-09-13T05:58:56;18.10;99.90
20560;DHT22;10438;51.454;6.718;2022-09-13T06:01:24;18.00;99.90
20560;DHT22;10438;51.454;6.718;2022-09-13T06:03:54;18.10;99.90
20560;DHT22;10438;51.454;6.718;2022-09-13T06:06:21;18.20;99.90
20560;DHT22;10438;51.454;6.718;2022-09-13T06:08:47;18.20;99.90
20560;DHT22;10438;51.454;6.718;2022-09-13T06:11:16;18.20;99.90
20560;DHT22;10438;51.454;6.718;2022-09-13T06:13:41;18.30;99.90
20560;DHT22;10438;51.454;6.718;2022-09-13T06:16:11;18.30;99.90
20560;DHT22;10438;51.454;6.718;2022-09-13T06:18:38;18.30;99.90
20560;DHT22;10438;51.454;6.718;2022-09-13T06:21:06;18.30;99.90
20560;DHT22;10438;51.454;6.718;2022-09-13T06:23:33;18.30;99.90
20560;DHT22;10438;51.454;6.718;2022-09-13T06:26:02;18.30;99.90
20560;DHT22;10438;51.454;6.718;2022-09-13T06:28:28;18.30;99.90
20560;DHT22;10438;51.454;6.718;2022-09-13T06:31:11;18.40;99.90
20560;DHT22;10438;51.454;6.718;2022-09-13T06:33:39;18.40;99.90
20560;DHT22;10438;51.454;6.718;2022-09-13T06:36:13;18.30;99.90
20560;DHT22;10438;51.454;6.718;2022-09-13T06:38:40;18.40;99.90
20560;DHT22;10438;51.454;6.718;2022-09-13T06:41:11;18.40;99.90
20560;DHT22;10438;51.454;6.718;2022-09-13T06:43:37;18.50;99.90
20560;DHT22;10438;51.454;6.718;2022-09-13T06:46:08;18.50;99.90
20560;DHT22;10438;51.454;6.718;2022-09-13T06:48:35;18.50;99.90
20560;DHT22;10438;51.454;6.718;2022-09-13T06:51:03;18.50;99.90
20560;DHT22;10438;51.454;6.718;2022-09-13T06:53:31;18.50;99.90
20560;DHT22;10438;51.454;6.718;2022-09-13T06:56:11;18.50;99.90
20560;DHT22;10438;51.454;6.718;2022-09-13T06:58:38;18.60;99.90
20560;DHT22;10438;51.454;6.718;2022-09-13T07:04:10;18.70;99.90
20560;DHT22;10438;51.454;6.718;2022-09-13T07:06:30;18.70;99.90
20560;DHT22;10438;51.454;6.718;2022-09-13T07:08:58;18.80;99.90
20560;DHT22;10438;51.454;6.718;2022-09-13T07:11:25;18.80;99.90
20560;DHT22;10438;51.454;6.718;2022-09-13T07:13:56;18.80;99.90
20560;DHT22;10438;51.454;6.718;2022-09-13T07:16:24;18.90;99.90
20560;DHT22;10438;51.454;6.718;2022-09-13T07:18:50;18.90;99.90
20560;DHT22;10438;51.454;6.718;2022-09-13T07:21:16;19.00;99.90
20560;DHT22;10438;51.454;6.718;2022-09-13T07:23:42;19.00;99.90
20560;DHT22;10438;51.454;6.718;2022-09-13T07:26:09;19.10;99.90
20560;DHT22;10438;51.454;6.718;2022-09-13T07:28:40;19.20;99.90
20560;DHT22;10438;51.454;6.718;2022-09-13T07:31:18;19.20;99.90
20560;DHT22;10438;51.454;6.718;2022-09-13T07:33:45;19.30;99.90
20560;DHT22;10438;51.454;6.718;2022-09-13T07:36:12;19.30;99.90
20560;DHT22;10438;51.454;6.718;2022-09-13T07:38:42;19.40;99.90
20560;DHT22;10438;51.454;6.718;2022-09-13T07:41:11;19.40;99.90
20560;DHT22;10438;51.454;6.718;2022-09-13T07:43:37;19.50;99.90
20560;DHT22;10438;51.454;6.718;2022-09-13T07:46:05;19.60;99.90
20560;DHT22;10438;51.454;6.718;2022-09-13T07:48:33;19.60;99.90
20560;DHT22;10438;51.454;6.718;2022-09-13T07:51:02;19.60;99.90
20560;DHT22;10438;51.454;6.718;2022-09-13T07:53:28;19.50;99.90
20560;DHT22;10438;51.454;6.718;2022-09-13T07:55:59;19.60;99.90
20560;DHT22;10438;51.454;6.718;2022-09-13T07:58:25;19.70;99.90
20560;DHT22;10438;51.454;6.718;2022-09-13T08:00:50;19.70;99.90
20560;DHT22;10438;51.454;6.718;2022-09-13T08:03:16;19.90;99.90
20560;DHT22;10438;51.454;6.718;2022-09-13T08:05:41;20.00;99.90
20560;DHT22;10438;51.454;6.718;2022-09-13T08:08:07;20.20;99.90
20560;DHT22;10438;51.454;6.718;2022-09-13T08:10:33;20.30;99.90
20560;DHT22;10438;51.454;6.718;2022-09-13T08:12:59;20.40;99.90
20560;DHT22;10438;51.454;6.718;2022-09-13T08:15:25;20.50;99.90
20560;DHT22;10438;51.454;6.718;2022-09-13T08:17:51;20.50;99.90
20560;DHT22;10438;51.454;6.718;2022-09-13T08:20:19;20.40;99.90
20560;DHT22;10438;51.454;6.718;2022-09-13T08:22:44;20.50;99.90
20560;DHT22;10438;51.454;6.718;2022-09-13T08:25:10;20.60;99.90
20560;DHT22;10438;51.454;6.718;2022-09-13T08:27:35;20.70;99.90
20560;DHT22;10438;51.454;6.718;2022-09-13T08:30:01;20.80;99.90
20560;DHT22;10438;51.454;6.718;2022-09-13T08:32:27;20.90;99.90
20560;DHT22;10438;51.454;6.718;2022-09-13T08:34:52;21.00;99.90
20560;DHT22;10438;51.454;6.718;2022-09-13T08:37:18;21.00;99.90
20560;DHT22;10438;51.454;6.718;2022-09-13T08:39:43;21.00;99.90
20560;DHT22;10438;51.454;6.718;2022-09-13T08:42:27;21.00;99.90
20560;DHT22;10438;51.454;6.718;2022-09-13T08:44:57;21.10;99.90
20560;DHT22;10438;51.454;6.718;2022-09-13T08:47:50;21.10;99.90
20560;DHT22;10438;51.454;6.718;2022-09-13T08:50:29;21.30;99.90
20560;DHT22;10438;51.454;6.718;2022-09-13T08:53:19;21.40;99.90
20560;DHT22;10438;51.454;6.718;2022-09-13T08:58:32;21.90;99.90
20560;DHT22;10438;51.454;6.718;2022-09-13T09:01:37;22.10;99.90
20560;DHT22;10438;51.454;6.718;2022-09-13T09:07:08;21.90;99.90
20560;DHT22;10438;51.454;6.718;2022-09-13T09:09:55;21.90;99.90
20560;DHT22;10438;51.454;6.718;2022-09-13T09:12:54;21.80;99.90
20560;DHT22;10438;51.454;6.718;2022-09-13T09:15:24;21.90;99.90
20560;DHT22;10438;51.454;6.718;2022-09-13T09:20:43;22.30;99.90
20560;DHT22;10438;51.454;6.718;2022-09-13T09:23:16;22.60;99.90
20560;DHT22;10438;51.454;6.718;2022-09-13T09:25:42;22.80;99.90
20560;DHT22;10438;51.454;6.718;2022-09-13T09:28:14;23.10;99.90
20560;DHT22;10438;51.454;6.718;2022-09-13T09:31:47;23.40;99.90
20560;DHT22;10438;51.454;6.718;2022-09-13T09:36:39;23.80;99.90
20560;DHT22;10438;51.454;6.718;2022-09-13T09:39:10;23.90;99.90
20560;DHT22;10438;51.454;6.718;2022-09-13T09:41:36;24.00;99.90
20560;DHT22;10438;51.454;6.718;2022-09-13T09:44:21;24.20;99.90
20560;DHT22;10438;51.454;6.718;2022-09-13T09:47:11;24.30;99.90
20560;DHT22;10438;51.454;6.718;2022-09-13T09:50:03;24.40;99.90
20560;DHT22;10438;51.454;6.718;2022-09-13T09:53:06;24.50;99.90
20560;DHT22;10438;51.454;6.718;2022-09-13T09:55:58;24.70;99.90
20560;DHT22;10438;51.454;6.718;2022-09-13T10:01:01;25.30;99.90
20560;DHT22;10438;51.454;6.718;2022-09-13T10:03:29;25.50;99.90
20560;DHT22;10438;51.454;6.718;2022-09-13T10:06:10;25.70;99.90
20560;DHT22;10438;51.454;6.718;2022-09-13T10:08:39;25.90;99.90
20560;DHT22;10438;51.454;6.718;2022-09-13T10:11:06;25.70;99.90
20560;DHT22;10438;51.454;6.718;2022-09-13T10:13:33;25.70;99.90
20560;DHT22;10438;51.454;6.718;2022-09-13T10:16:20;25.70;99.90
20560;DHT22;10438;51.454;6.718;2022-09-13T10:18:49;25.80;99.90
20560;DHT22;10438;51.454;6.718;2022-09-13T10:23:44;25.70;99.90
20560;DHT22;10438;51.454;6.718;2022-09-13T10:26:14;25.60;99.90
20560;DHT22;10438;51.454;6.718;2022-09-13T10:31:17;25.40;99.90
20560;DHT22;10438;51.454;6.718;2022-09-13T10:36:22;25.60;99.90
20560;DHT22;10438;51.454;6.718;2022-09-13T10:39:00;26.00;99.90
20560;DHT22;10438;51.454;6.718;2022-09-13T10:41:29;26.20;99.90
20560;DHT22;10438;51.454;6.718;2022-09-13T10:44:03;26.50;99.90
20560;DHT22;10438;51.454;6.718;2022-09-13T10:46:34;26.60;99.90
20560;DHT22;10438;51.454;6.718;2022-09-13T10:49:01;26.70;99.90
20560;DHT22;10438;51.454;6.718;2022-09-13T10:56:40;27.20;99.90
20560;DHT22;10438;51.454;6.718;2022-09-13T10:59:33;27.20;99.90
20560;DHT22;10438;51.454;6.718;2022-09-13T11:12:56;28.40;75.40
20560;DHT22;10438;51.454;6.718;2022-09-13T11:15:40;28.20;91.60
20560;DHT22;10438;51.454;6.718;2022-09-13T11:20:54;28.40;83.20
20560;DHT22;10438;51.454;6.718;2022-09-13T11:23:58;28.20;89.30
20560;DHT22;10438;51.454;6.718;2022-09-13T11:32:21;28.70;93.30
20560;DHT22;10438;51.454;6.718;2022-09-13T11:35:00;28.30;83.00
20560;DHT22;10438;51.454;6.718;2022-09-13T11:41:10;28.00;90.80
20560;DHT22;10438;51.454;6.718;2022-09-13T11:43:07;28.60;74.60
20560;DHT22;10438;51.454;6.718;2022-09-13T11:56:31;27.70;83.40
20560;DHT22;10438;51.454;6.718;2022-09-13T11:59:15;27.70;87.10
20560;DHT22;10438;51.454;6.718;2022-09-13T12:01:54;28.30;92.00
20560;DHT22;10438;51.454;6.718;2022-09-13T12:04:36;28.20;84.50
20560;DHT22;10438;51.454;6.718;2022-09-13T12:07:13;28.40;83.80
20560;DHT22;10438;51.454;6.718;2022-09-13T12:09:51;28.60;67.20
20560;DHT22;10438;51.454;6.718;2022-09-13T12:12:18;28.50;82.50
20560;DHT22;10438;51.454;6.718;2022-09-13T12:14:58;28.30;73.60
20560;DHT22;10438;51.454;6.718;2022-09-13T12:17:38;28.30;73.80
20560;DHT22;10438;51.454;6.718;2022-09-13T12:20:11;28.10;75.80
20560;DHT22;10438;51.454;6.718;2022-09-13T12:22:38;27.80;83.10
20560;DHT22;10438;51.454;6.718;2022-09-13T12:25:20;27.60;92.50
20560;DHT22;10438;51.454;6.718;2022-09-13T12:27:53;27.40;95.40
20560;DHT22;10438;51.454;6.718;2022-09-13T12:30:24;27.40;90.70
20560;DHT22;10438;51.454;6.718;2022-09-13T12:32:52;27.60;90.90
20560;DHT22;10438;51.454;6.718;2022-09-13T12:35:34;27.60;82.60
20560;DHT22;10438;51.454;6.718;2022-09-13T12:38:33;27.80;92.30
20560;DHT22;10438;51.454;6.718;2022-09-13T12:41:26;28.60;90.50
20560;DHT22;10438;51.454;6.718;2022-09-13T12:47:15;29.40;73.00
20560;DHT22;10438;51.454;6.718;2022-09-13T12:50:21;29.70;71.60
20560;DHT22;10438;51.454;6.718;2022-09-13T12:53:23;29.30;61.10
20560;DHT22;10438;51.454;6.718;2022-09-13T12:56:08;29.40;75.10
20560;DHT22;10438;51.454;6.718;2022-09-13T13:01:29;28.70;70.00
20560;DHT22;10438;51.454;6.718;2022-09-13T13:04:03;28.70;77.60
20560;DHT22;10438;51.454;6.718;2022-09-13T13:06:36;28.90;74.80
20560;DHT22;10438;51.454;6.718;2022-09-13T13:14:57;29.80;62.00
20560;DHT22;10438;51.454;6.718;2022-09-13T13:17:48;30.20;52.50
20560;DHT22;10438;51.454;6.718;2022-09-13T13:23:31;29.10;62.70
20560;DHT22;10438;51.454;6.718;2022-09-13T13:26:09;28.90;58.80
20560;DHT22;10438;51.454;6.718;2022-09-13T13:36:56;28.80;70.90
20560;DHT22;10438;51.454;6.718;2022-09-13T13:42:09;28.40;68.10
20560;DHT22;10438;51.454;6.718;2022-09-13T13:57:34;29.80;44.20
20560;DHT22;10438;51.454;6.718;2022-09-13T14:20:03;27.50;89.90
20560;DHT22;10438;51.454;6.718;2022-09-13T14:22:30;27.20;96.80
20560;DHT22;10438;51.454;6.718;2022-09-13T14:24:59;27.00;96.40
20560;DHT22;10438;51.454;6.718;2022-09-13T14:27:39;27.10;97.00
20560;DHT22;10438;51.454;6.718;2022-09-13T14:30:20;27.10;99.10
20560;DHT22;10438;51.454;6.718;2022-09-13T14:32:49;27.00;98.70
20560;DHT22;10438;51.454;6.718;2022-09-13T14:35:30;27.00;96.50
20560;DHT22;10438;51.454;6.718;2022-09-13T14:38:12;26.90;99.10
20560;DHT22;10438;51.454;6.718;2022-09-13T14:40:51;26.80;99.90
20560;DHT22;10438;51.454;6.718;2022-09-13T14:43:22;27.20;99.90
20560;DHT22;10438;51.454;6.718;2022-09-13T14:45:52;27.70;98.70
20560;DHT22;10438;51.454;6.718;2022-09-13T14:48:34;27.90;99.00
20560;DHT22;10438;51.454;6.718;2022-09-13T14:51:06;27.90;98.00
20560;DHT22;10438;51.454;6.718;2022-09-13T14:53:33;27.60;99.90
20560;DHT22;10438;51.454;6.718;2022-09-13T14:56:03;27.30;99.90
20560;DHT22;10438;51.454;6.718;2022-09-13T14:58:43;26.90;99.90
20560;DHT22;10438;51.454;6.718;2022-09-13T15:01:11;26.60;99.90
20560;DHT22;10438;51.454;6.718;2022-09-13T15:03:42;26.40;99.90
20560;DHT22;10438;51.454;6.718;2022-09-13T15:06:23;26.10;99.90
20560;DHT22;10438;51.454;6.718;2022-09-13T15:08:50;26.10;99.90
20560;DHT22;10438;51.454;6.718;2022-09-13T15:11:31;26.10;99.90
20560;DHT22;10438;51.454;6.718;2022-09-13T15:14:29;26.00;99.90
20560;DHT22;10438;51.454;6.718;2022-09-13T15:17:06;25.80;99.90
20560;DHT22;10438;51.454;6.718;2022-09-13T15:19:40;25.70;99.90
20560;DHT22;10438;51.454;6.718;2022-09-13T15:22:22;25.60;99.90
20560;DHT22;10438;51.454;6.718;2022-09-13T15:24:53;25.50;99.90
20560;DHT22;10438;51.454;6.718;2022-09-13T15:30:02;25.20;99.90
20560;DHT22;10438;51.454;6.718;2022-09-13T15:34:58;25.10;99.90
20560;DHT22;10438;51.454;6.718;2022-09-13T15:37:29;25.10;99.90
20560;DHT22;10438;51.454;6.718;2022-09-13T15:40:22;25.10;99.90
20560;DHT22;10438;51.454;6.718;2022-09-13T15:42:49;25.10;99.90
20560;DHT22;10438;51.454;6.718;2022-09-13T15:45:16;25.10;99.90
20560;DHT22;10438;51.454;6.718;2022-09-13T15:47:45;25.00;99.90
20560;DHT22;10438;51.454;6.718;2022-09-13T15:50:28;25.00;99.90
20560;DHT22;10438;51.454;6.718;2022-09-13T15:52:57;24.90;99.90
20560;DHT22;10438;51.454;6.718;2022-09-13T15:55:25;24.80;99.90
20560;DHT22;10438;51.454;6.718;2022-09-13T15:57:51;24.80;99.90
20560;DHT22;10438;51.454;6.718;2022-09-13T16:00:23;24.80;99.90
20560;DHT22;10438;51.454;6.718;2022-09-13T16:02:49;24.70;99.90
20560;DHT22;10438;51.454;6.718;2022-09-13T16:05:15;24.70;99.90
20560;DHT22;10438;51.454;6.718;2022-09-13T16:07:42;24.70;99.90
20560;DHT22;10438;51.454;6.718;2022-09-13T16:10:17;24.70;99.90
20560;DHT22;10438;51.454;6.718;2022-09-13T16:12:43;24.60;99.90
20560;DHT22;10438;51.454;6.718;2022-09-13T16:15:10;24.50;99.90
20560;DHT22;10438;51.454;6.718;2022-09-13T16:17:37;24.40;99.90
20560;DHT22;10438;51.454;6.718;2022-09-13T16:20:03;24.40;99.90
20560;DHT22;10438;51.454;6.718;2022-09-13T16:22:30;24.30;99.90
20560;DHT22;10438;51.454;6.718;2022-09-13T16:24:56;24.30;99.90
20560;DHT22;10438;51.454;6.718;2022-09-13T16:27:21;24.20;99.90
20560;DHT22;10438;51.454;6.718;2022-09-13T16:29:47;24.10;99.90
20560;DHT22;10438;51.454;6.718;2022-09-13T16:32:13;24.00;99.90
20560;DHT22;10438;51.454;6.718;2022-09-13T16:34:39;23.90;99.90
20560;DHT22;10438;51.454;6.718;2022-09-13T16:37:04;23.90;99.90
20560;DHT22;10438;51.454;6.718;2022-09-13T16:39:30;23.80;99.90
20560;DHT22;10438;51.454;6.718;2022-09-13T16:41:55;23.80;99.90
20560;DHT22;10438;51.454;6.718;2022-09-13T16:44:21;23.80;99.90
20560;DHT22;10438;51.454;6.718;2022-09-13T16:46:47;23.70;99.90
20560;DHT22;10438;51.454;6.718;2022-09-13T16:49:12;23.70;99.90
20560;DHT22;10438;51.454;6.718;2022-09-13T16:51:38;23.70;99.90
20560;DHT22;10438;51.454;6.718;2022-09-13T16:54:04;23.70;99.90
20560;DHT22;10438;51.454;6.718;2022-09-13T16:56:30;23.60;99.90
20560;DHT22;10438;51.454;6.718;2022-09-13T16:58:56;23.60;99.90
20560;DHT22;10438;51.454;6.718;2022-09-13T17:01:24;23.50;99.90
20560;DHT22;10438;51.454;6.718;2022-09-13T17:03:51;23.50;99.90
20560;DHT22;10438;51.454;6.718;2022-09-13T17:06:17;23.40;99.90
20560;DHT22;10438;51.454;6.718;2022-09-13T17:08:55;23.40;99.90
20560;DHT22;10438;51.454;6.718;2022-09-13T17:11:25;23.30;99.90
20560;DHT22;10438;51.454;6.718;2022-09-13T17:13:51;23.30;99.90
20560;DHT22;10438;51.454;6.718;2022-09-13T17:16:33;23.20;99.90
20560;DHT22;10438;51.454;6.718;2022-09-13T17:19:02;23.10;99.90
20560;DHT22;10438;51.454;6.718;2022-09-13T17:21:29;23.10;99.90
20560;DHT22;10438;51.454;6.718;2022-09-13T17:23:55;23.10;99.90
20560;DHT22;10438;51.454;6.718;2022-09-13T17:26:21;23.00;99.90
20560;DHT22;10438;51.454;6.718;2022-09-13T17:28:47;23.00;99.90
20560;DHT22;10438;51.454;6.718;2022-09-13T17:31:13;23.00;99.90
20560;DHT22;10438;51.454;6.718;2022-09-13T17:33:39;22.90;99.90
20560;DHT22;10438;51.454;6.718;2022-09-13T17:36:06;22.90;99.90
20560;DHT22;10438;51.454;6.718;2022-09-13T17:38:36;22.80;99.90
20560;DHT22;10438;51.454;6.718;2022-09-13T17:41:10;22.80;99.90
20560;DHT22;10438;51.454;6.718;2022-09-13T17:43:37;22.80;99.90
20560;DHT22;10438;51.454;6.718;2022-09-13T17:46:11;22.70;99.90
20560;DHT22;10438;51.454;6.718;2022-09-13T17:48:37;22.70;99.90
20560;DHT22;10438;51.454;6.718;2022-09-13T17:51:05;22.70;99.90
20560;DHT22;10438;51.454;6.718;2022-09-13T17:53:35;22.70;99.90
20560;DHT22;10438;51.454;6.718;2022-09-13T17:56:01;22.60;99.90
20560;DHT22;10438;51.454;6.718;2022-09-13T17:58:27;22.60;99.90
20560;DHT22;10438;51.454;6.718;2022-09-13T18:01:03;22.50;99.90
20560;DHT22;10438;51.454;6.718;2022-09-13T18:03:29;22.50;99.90
20560;DHT22;10438;51.454;6.718;2022-09-13T18:05:56;22.40;99.90
20560;DHT22;10438;51.454;6.718;2022-09-13T18:08:24;22.40;99.90
20560;DHT22;10438;51.454;6.718;2022-09-13T18:10:50;22.40;99.90
20560;DHT22;10438;51.454;6.718;2022-09-13T18:13:15;22.40;99.90
20560;DHT22;10438;51.454;6.718;2022-09-13T18:15:41;22.40;99.90
20560;DHT22;10438;51.454;6.718;2022-09-13T18:18:06;22.30;99.90
20560;DHT22;10438;51.454;6.718;2022-09-13T18:20:32;22.30;99.90
20560;DHT22;10438;51.454;6.718;2022-09-13T18:22:58;22.30;99.90
20560;DHT22;10438;51.454;6.718;2022-09-13T18:25:23;22.30;99.90
20560;DHT22;10438;51.454;6.718;2022-09-13T18:27:49;22.30;99.90
20560;DHT22;10438;51.454;6.718;2022-09-13T18:30:15;22.20;99.90
20560;DHT22;10438;51.454;6.718;2022-09-13T18:32:41;22.20;99.90
20560;DHT22;10438;51.454;6.718;2022-09-13T18:35:06;22.10;99.90
20560;DHT22;10438;51.454;6.718;2022-09-13T18:37:32;22.10;99.90
20560;DHT22;10438;51.454;6.718;2022-09-13T18:39:59;22.10;99.90
20560;DHT22;10438;51.454;6.718;2022-09-13T18:42:24;22.00;99.90
20560;DHT22;10438;51.454;6.718;2022-09-13T18:44:50;22.00;99.90
20560;DHT22;10438;51.454;6.718;2022-09-13T18:47:17;22.00;99.90
20560;DHT22;10438;51.454;6.718;2022-09-13T18:49:43;21.90;99.90
20560;DHT22;10438;51.454;6.718;2022-09-13T18:52:08;21.90;99.90
20560;DHT22;10438;51.454;6.718;2022-09-13T18:54:35;21.80;99.90
20560;DHT22;10438;51.454;6.718;2022-09-13T18:57:01;21.90;99.90
20560;DHT22;10438;51.454;6.718;2022-09-13T18:59:27;21.90;99.90